Time;durP1;ratioP1;P1;durP2;ratioP2;P2;SDS_P1;SDS_P2;PMS_P1;PMS_P2;Temp;Humidity;BMP_temperature;BMP_pressure;BME280_temperature;BME280_humidity;BME280_pressure;Samples;Min_cycle;Max_cycle;Signal;HPM_P1;HPM_P2
2022/03/28 00:01:55;;;;;;;;;;;9.80;47.80;;;;;;6278503;22;19903;-90
2022/03/28 00:04:20;;;;;;;;;;;9.80;47.90;;;;;;6277431;22;19918;-89
2022/03/28 00:06:46;;;;;;;;;;;9.80;48.00;;;;;;6277487;22;20366;-88
2022/03/28 00:09:12;;;;;;;;;;;9.70;48.00;;;;;;6279620;22;19912;-88
2022/03/28 00:11:38;;;;;;;;;;;9.70;48.00;;;;;;6278008;22;19908;-89
2022/03/28 00:14:04;;;;;;;;;;;9.70;48.00;;;;;;6279328;22;19919;-88
2022/03/28 00:16:29;;;;;;;;;;;9.70;48.00;;;;;;6278121;22;19999;-88
2022/03/28 00:18:55;;;;;;;;;;;9.60;48.00;;;;;;6279622;22;19957;-89
2022/03/28 00:21:20;;;;;;;;;;;9.60;48.00;;;;;;6279252;22;19939;-90
2022/03/28 00:23:46;;;;;;;;;;;9.60;48.40;;;;;;6281231;22;19961;-89
2022/03/28 00:26:13;;;;;;;;;;;9.60;48.70;;;;;;6279804;22;19982;-89
2022/03/28 00:28:38;;;;;;;;;;;9.50;48.70;;;;;;6278527;22;19912;-90
2022/03/28 00:31:04;;;;;;;;;;;9.50;48.50;;;;;;6279169;22;20204;-90
2022/03/28 00:33:30;;;;;;;;;;;9.50;48.50;;;;;;6279168;22;19915;-89
2022/03/28 00:35:55;;;;;;;;;;;9.50;48.50;;;;;;6281055;22;19955;-89
2022/03/28 00:38:21;;;;;;;;;;;9.50;48.40;;;;;;6278143;22;19911;-88
2022/03/28 00:40:46;;;;;;;;;;;9.40;48.40;;;;;;6280244;22;20209;-89
2022/03/28 00:43:12;;;;;;;;;;;9.40;48.40;;;;;;6282367;22;19961;-88
2022/03/28 00:45:38;;;;;;;;;;;9.30;48.40;;;;;;6279975;22;19914;-88
2022/03/28 00:48:04;;;;;;;;;;;9.30;48.50;;;;;;6280501;22;20316;-88
2022/03/28 00:50:30;;;;;;;;;;;9.30;48.70;;;;;;6277988;22;19918;-88
2022/03/28 00:52:56;;;;;;;;;;;9.30;48.60;;;;;;6278307;22;20260;-89
2022/03/28 00:55:21;;;;;;;;;;;9.30;48.60;;;;;;6280362;22;19943;-87
2022/03/28 00:57:47;;;;;;;;;;;9.20;48.60;;;;;;6279719;22;19904;-86
2022/03/28 01:00:12;;;;;;;;;;;9.30;48.70;;;;;;6278494;22;19907;-88
2022/03/28 01:02:38;;;;;;;;;;;9.20;48.80;;;;;;6278720;22;19907;-88
2022/03/28 01:05:04;;;;;;;;;;;9.20;48.70;;;;;;6278719;22;19976;-88
2022/03/28 01:07:31;;;;;;;;;;;9.20;48.90;;;;;;6278927;22;19907;-89
2022/03/28 01:09:58;;;;;;;;;;;9.20;48.80;;;;;;6278123;22;20338;-87
2022/03/28 01:12:29;;;;;;;;;;;9.20;48.80;;;;;;6279689;22;19910;-88
2022/03/28 01:14:55;;;;;;;;;;;9.10;48.80;;;;;;6279519;22;20367;-87
2022/03/28 01:18:22;;;;;;;;;;;9.10;49.20;;;;;;6277088;22;19903;-88
2022/03/28 01:20:15;;;;;;;;;;;9.10;49.50;;;;;;6257862;22;19911;-87
2022/03/28 01:22:41;;;;;;;;;;;9.10;49.30;;;;;;6280632;22;19904;-88
2022/03/28 01:25:07;;;;;;;;;;;9.10;49.30;;;;;;6277753;22;19930;-88
2022/03/28 01:27:36;;;;;;;;;;;9.00;49.10;;;;;;6279214;22;19935;-88
2022/03/28 01:30:03;;;;;;;;;;;9.00;49.20;;;;;;6279715;22;19957;-87
2022/03/28 01:32:28;;;;;;;;;;;9.00;49.40;;;;;;6279214;22;19904;-89
2022/03/28 01:34:53;;;;;;;;;;;9.00;49.30;;;;;;6277304;22;19911;-88
2022/03/28 01:37:19;;;;;;;;;;;9.00;49.60;;;;;;6278549;22;19911;-88
2022/03/28 01:39:44;;;;;;;;;;;9.00;49.60;;;;;;6277597;22;19946;-88
2022/03/28 01:42:10;;;;;;;;;;;9.00;49.70;;;;;;6278855;22;19908;-88
2022/03/28 01:44:35;;;;;;;;;;;8.90;50.00;;;;;;6279149;22;19911;-89
2022/03/28 01:47:01;;;;;;;;;;;9.00;49.80;;;;;;6279430;22;19907;-88
2022/03/28 01:49:26;;;;;;;;;;;8.90;49.70;;;;;;6279123;22;19907;-88
2022/03/28 01:51:52;;;;;;;;;;;8.90;49.60;;;;;;6278946;22;19958;-88
2022/03/28 01:54:17;;;;;;;;;;;8.80;49.50;;;;;;6277360;22;19915;-88
2022/03/28 01:56:43;;;;;;;;;;;8.80;49.40;;;;;;6275943;22;19918;-88
2022/03/28 01:59:09;;;;;;;;;;;8.80;49.40;;;;;;6278533;22;20285;-88
2022/03/28 02:01:36;;;;;;;;;;;8.80;49.40;;;;;;6278114;22;19961;-87
2022/03/28 02:04:01;;;;;;;;;;;8.80;49.70;;;;;;6276506;22;19981;-87
2022/03/28 02:06:27;;;;;;;;;;;8.80;49.90;;;;;;6276814;22;19908;-88
2022/03/28 02:08:53;;;;;;;;;;;8.80;50.10;;;;;;6277317;22;19919;-88
2022/03/28 02:11:18;;;;;;;;;;;8.80;50.20;;;;;;6278363;22;19926;-89
2022/03/28 02:13:44;;;;;;;;;;;8.80;50.20;;;;;;6276555;22;19911;-88
2022/03/28 02:16:09;;;;;;;;;;;8.80;50.10;;;;;;6278861;22;20332;-88
2022/03/28 02:18:35;;;;;;;;;;;8.70;50.00;;;;;;6276733;22;20300;-88
2022/03/28 02:21:00;;;;;;;;;;;8.70;49.80;;;;;;6276571;22;19957;-88
2022/03/28 02:23:26;;;;;;;;;;;8.70;49.80;;;;;;6277125;22;19912;-88
2022/03/28 02:25:51;;;;;;;;;;;8.70;49.70;;;;;;6278657;22;19948;-89
2022/03/28 02:28:17;;;;;;;;;;;8.70;49.70;;;;;;6276738;22;19911;-88
2022/03/28 02:30:42;;;;;;;;;;;8.70;49.70;;;;;;6278919;22;19972;-88
2022/03/28 02:33:08;;;;;;;;;;;8.70;49.70;;;;;;6277310;22;19919;-89
2022/03/28 02:35:33;;;;;;;;;;;8.60;49.70;;;;;;6277313;22;19915;-89
2022/03/28 02:38:01;;;;;;;;;;;8.60;49.80;;;;;;6276989;22;19922;-89
2022/03/28 02:40:30;;;;;;;;;;;8.60;50.10;;;;;;6278424;22;19956;-90
2022/03/28 02:43:02;;;;;;;;;;;8.60;50.00;;;;;;6277549;22;19999;-88
2022/03/28 02:45:29;;;;;;;;;;;8.50;49.90;;;;;;6276808;22;19943;-88
2022/03/28 02:47:55;;;;;;;;;;;8.50;49.90;;;;;;6278239;22;19911;-88
2022/03/28 02:50:20;;;;;;;;;;;8.50;50.00;;;;;;6276849;22;20283;-88
2022/03/28 02:52:46;;;;;;;;;;;8.40;50.00;;;;;;6277352;22;19939;-88
2022/03/28 02:55:11;;;;;;;;;;;8.40;50.50;;;;;;6278813;22;19911;-88
2022/03/28 02:57:37;;;;;;;;;;;8.50;50.30;;;;;;6278749;22;19911;-88
2022/03/28 03:00:04;;;;;;;;;;;8.50;50.10;;;;;;6276342;22;19907;-88
2022/03/28 03:02:29;;;;;;;;;;;8.40;50.00;;;;;;6276356;22;19918;-87
2022/03/28 03:04:54;;;;;;;;;;;8.40;49.90;;;;;;6277319;22;19903;-88
2022/03/28 03:07:20;;;;;;;;;;;8.40;49.90;;;;;;6276932;22;20567;-89
2022/03/28 03:09:47;;;;;;;;;;;8.30;50.00;;;;;;6277886;22;19919;-86
2022/03/28 03:12:12;;;;;;;;;;;8.30;49.90;;;;;;6278901;22;19950;-88
2022/03/28 03:14:38;;;;;;;;;;;8.20;49.90;;;;;;6278431;22;20223;-87
2022/03/28 03:17:03;;;;;;;;;;;8.20;49.90;;;;;;6275776;22;19918;-86
2022/03/28 03:19:29;;;;;;;;;;;8.20;49.90;;;;;;6276322;22;19907;-88
2022/03/28 03:21:54;;;;;;;;;;;8.20;50.00;;;;;;6276594;22;19922;-88
2022/03/28 03:24:20;;;;;;;;;;;8.20;50.10;;;;;;6277198;22;19942;-88
2022/03/28 03:26:45;;;;;;;;;;;8.20;50.20;;;;;;6278589;22;19912;-88
2022/03/28 03:29:11;;;;;;;;;;;8.10;50.20;;;;;;6278269;22;19907;-88
2022/03/28 03:31:37;;;;;;;;;;;8.20;50.30;;;;;;6276790;22;19961;-88
2022/03/28 03:34:02;;;;;;;;;;;8.20;50.40;;;;;;6277783;22;20300;-88
2022/03/28 03:36:28;;;;;;;;;;;8.10;50.30;;;;;;6278461;22;19915;-87
2022/03/28 03:38:54;;;;;;;;;;;8.10;50.30;;;;;;6277106;22;19907;-88
2022/03/28 03:41:19;;;;;;;;;;;8.10;50.30;;;;;;6276996;22;19911;-89
2022/03/28 03:43:44;;;;;;;;;;;8.10;50.30;;;;;;6276995;22;19913;-86
2022/03/28 03:46:11;;;;;;;;;;;8.00;50.50;;;;;;6278182;22;20004;-87
2022/03/28 03:48:37;;;;;;;;;;;8.00;50.60;;;;;;6277122;22;19907;-87
2022/03/28 03:51:02;;;;;;;;;;;8.00;50.80;;;;;;6278538;22;19918;-86
2022/03/28 03:53:28;;;;;;;;;;;8.00;50.80;;;;;;6278830;22;19907;-86
2022/03/28 03:55:53;;;;;;;;;;;8.00;50.70;;;;;;6276599;22;19951;-86
2022/03/28 03:58:19;;;;;;;;;;;8.00;50.60;;;;;;6276615;22;20258;-86
2022/03/28 04:00:44;;;;;;;;;;;8.00;50.70;;;;;;6279190;22;19942;-87
2022/03/28 04:03:10;;;;;;;;;;;8.00;50.90;;;;;;6277292;22;20248;-86
2022/03/28 04:05:37;;;;;;;;;;;8.00;51.00;;;;;;6276886;22;19911;-87
2022/03/28 04:08:06;;;;;;;;;;;8.00;51.00;;;;;;6277428;22;19910;-87
2022/03/28 04:10:32;;;;;;;;;;;8.00;50.90;;;;;;6251635;22;19911;-87
2022/03/28 04:12:57;;;;;;;;;;;8.00;50.90;;;;;;6279311;22;20240;-88
2022/03/28 04:15:24;;;;;;;;;;;8.00;50.90;;;;;;6278875;22;19919;-88
2022/03/28 04:17:50;;;;;;;;;;;8.00;51.00;;;;;;6278714;22;19949;-87
2022/03/28 04:20:15;;;;;;;;;;;8.00;51.10;;;;;;6277166;22;20263;-89
2022/03/28 04:22:41;;;;;;;;;;;8.10;51.20;;;;;;6277509;22;19907;-88
2022/03/28 04:25:08;;;;;;;;;;;8.10;51.20;;;;;;6277144;22;19918;-88
2022/03/28 04:27:35;;;;;;;;;;;8.10;51.40;;;;;;6277191;22;20332;-87
2022/03/28 04:30:01;;;;;;;;;;;8.20;51.60;;;;;;6277093;22;19918;-88
2022/03/28 04:32:26;;;;;;;;;;;8.20;52.00;;;;;;6277524;22;20227;-87
2022/03/28 04:34:52;;;;;;;;;;;8.20;52.00;;;;;;6278406;22;19945;-87
2022/03/28 04:37:18;;;;;;;;;;;8.20;52.00;;;;;;6276366;22;19908;-87
2022/03/28 04:39:43;;;;;;;;;;;8.30;52.10;;;;;;6276396;22;19915;-87
2022/03/28 04:42:09;;;;;;;;;;;8.30;52.10;;;;;;6278882;22;19911;-88
2022/03/28 04:44:34;;;;;;;;;;;8.30;52.10;;;;;;6278783;22;19915;-87
2022/03/28 04:47:00;;;;;;;;;;;8.30;52.20;;;;;;6279100;22;19951;-87
2022/03/28 04:49:25;;;;;;;;;;;8.30;52.20;;;;;;6278814;22;20347;-88
2022/03/28 04:51:51;;;;;;;;;;;8.20;52.10;;;;;;6277127;22;20217;-88
2022/03/28 04:54:16;;;;;;;;;;;8.20;52.20;;;;;;6278830;22;20549;-86
2022/03/28 04:56:43;;;;;;;;;;;8.20;52.60;;;;;;6277170;22;19916;-88
2022/03/28 04:59:09;;;;;;;;;;;8.20;52.60;;;;;;6278603;22;19986;-87
2022/03/28 05:01:34;;;;;;;;;;;8.10;52.70;;;;;;6276625;22;20386;-88
2022/03/28 05:04:00;;;;;;;;;;;8.10;52.70;;;;;;6276769;22;20323;-88
2022/03/28 05:06:25;;;;;;;;;;;8.00;52.90;;;;;;6277252;22;19918;-88
2022/03/28 05:08:50;;;;;;;;;;;8.00;53.00;;;;;;6278822;22;19978;-87
2022/03/28 05:11:16;;;;;;;;;;;8.00;53.10;;;;;;6277513;22;19919;-87
2022/03/28 05:13:41;;;;;;;;;;;8.00;53.30;;;;;;6278718;22;20321;-89
2022/03/28 05:16:07;;;;;;;;;;;8.00;53.60;;;;;;6278125;22;20243;-88
2022/03/28 05:18:32;;;;;;;;;;;8.00;53.90;;;;;;6278709;22;20239;-88
2022/03/28 05:20:58;;;;;;;;;;;8.00;54.20;;;;;;6278044;22;20228;-88
2022/03/28 05:23:23;;;;;;;;;;;8.10;54.60;;;;;;6281882;22;20247;-86
2022/03/28 05:25:48;;;;;;;;;;;8.10;55.00;;;;;;6278167;22;19915;-88
2022/03/28 05:28:14;;;;;;;;;;;8.20;55.40;;;;;;6277698;22;19907;-87
2022/03/28 05:30:39;;;;;;;;;;;8.20;55.60;;;;;;6277081;22;19923;-87
2022/03/28 05:33:05;;;;;;;;;;;8.30;55.90;;;;;;6279354;22;19907;-88
2022/03/28 05:35:30;;;;;;;;;;;8.40;56.20;;;;;;6276832;22;19916;-87
2022/03/28 05:37:56;;;;;;;;;;;8.40;56.30;;;;;;6277803;22;19911;-87
2022/03/28 05:40:21;;;;;;;;;;;8.50;56.50;;;;;;6276707;22;19917;-88
2022/03/28 05:42:47;;;;;;;;;;;8.60;56.70;;;;;;6278738;22;19929;-88
2022/03/28 05:45:12;;;;;;;;;;;8.70;57.00;;;;;;6276598;22;19922;-88
2022/03/28 05:47:38;;;;;;;;;;;8.70;57.20;;;;;;6276928;22;19915;-88
2022/03/28 05:50:04;;;;;;;;;;;8.80;57.30;;;;;;6277000;22;19915;-87
2022/03/28 05:52:30;;;;;;;;;;;8.80;57.50;;;;;;6277219;22;20259;-86
2022/03/28 05:54:55;;;;;;;;;;;8.90;57.80;;;;;;6276582;22;19915;-88
2022/03/28 05:57:21;;;;;;;;;;;9.00;57.90;;;;;;6276628;22;19911;-88
2022/03/28 05:59:46;;;;;;;;;;;9.10;58.00;;;;;;6276161;22;19926;-87
2022/03/28 06:02:12;;;;;;;;;;;9.20;58.10;;;;;;6278249;22;20054;-88
2022/03/28 06:04:37;;;;;;;;;;;9.30;58.20;;;;;;6278710;22;20319;-87
2022/03/28 06:07:07;;;;;;;;;;;9.50;58.40;;;;;;6278046;22;19911;-87
2022/03/28 06:09:35;;;;;;;;;;;9.60;58.50;;;;;;6278010;22;19907;-87
2022/03/28 06:12:01;;;;;;;;;;;9.70;58.70;;;;;;6276944;22;19907;-87
2022/03/28 06:14:26;;;;;;;;;;;9.80;58.90;;;;;;6251670;22;19912;-86
2022/03/28 06:16:54;;;;;;;;;;;10.00;59.00;;;;;;6278125;22;19957;-87
2022/03/28 06:19:19;;;;;;;;;;;10.20;59.10;;;;;;6277189;22;20347;-87
2022/03/28 06:21:45;;;;;;;;;;;10.30;59.10;;;;;;6277211;22;19907;-88
2022/03/28 06:24:10;;;;;;;;;;;10.50;59.30;;;;;;6276800;22;19990;-87
2022/03/28 06:26:36;;;;;;;;;;;10.70;59.40;;;;;;6276350;22;19903;-87
2022/03/28 06:29:01;;;;;;;;;;;10.80;59.50;;;;;;6276914;22;20299;-88
2022/03/28 06:31:27;;;;;;;;;;;11.00;59.60;;;;;;6279111;22;19904;-88
2022/03/28 06:33:57;;;;;;;;;;;11.20;59.50;;;;;;6277790;22;19958;-87
2022/03/28 06:36:23;;;;;;;;;;;11.40;59.50;;;;;;6276723;22;20280;-89
2022/03/28 06:38:48;;;;;;;;;;;11.50;59.40;;;;;;6276337;22;19911;-88
2022/03/28 06:41:14;;;;;;;;;;;11.60;59.30;;;;;;6275681;22;19911;-89
2022/03/28 06:43:40;;;;;;;;;;;11.80;59.20;;;;;;6276636;22;19943;-89
2022/03/28 06:46:05;;;;;;;;;;;11.90;59.10;;;;;;6278351;22;19960;-89
2022/03/28 06:48:31;;;;;;;;;;;12.00;59.00;;;;;;6277536;22;19970;-88
2022/03/28 06:50:57;;;;;;;;;;;12.00;58.60;;;;;;6277132;22;20334;-88
2022/03/28 06:53:22;;;;;;;;;;;12.20;58.80;;;;;;6277931;22;19903;-89
2022/03/28 06:55:48;;;;;;;;;;;12.30;58.90;;;;;;6278221;22;19980;-88
2022/03/28 06:58:13;;;;;;;;;;;12.40;58.90;;;;;;6276467;22;19910;-89
2022/03/28 07:00:38;;;;;;;;;;;12.50;58.90;;;;;;6278152;22;20324;-89
2022/03/28 07:03:07;;;;;;;;;;;12.70;58.70;;;;;;6276264;22;19926;-90
2022/03/28 07:05:33;;;;;;;;;;;12.80;58.40;;;;;;6276543;22;19915;-90
2022/03/28 07:07:58;;;;;;;;;;;12.90;58.40;;;;;;6276580;22;20706;-89
2022/03/28 07:10:24;;;;;;;;;;;13.10;58.50;;;;;;6275756;22;19947;-89
2022/03/28 07:12:54;;;;;;;;;;;13.20;58.60;;;;;;6277429;22;19982;-89
2022/03/28 07:15:20;;;;;;;;;;;13.40;58.50;;;;;;6275602;22;19919;-89
2022/03/28 07:17:52;;;;;;;;;;;13.60;58.20;;;;;;6278281;22;19914;-89
2022/03/28 07:20:18;;;;;;;;;;;13.70;58.00;;;;;;6276784;22;19907;-89
2022/03/28 07:22:44;;;;;;;;;;;13.80;57.40;;;;;;6276500;22;19908;-90
2022/03/28 07:25:10;;;;;;;;;;;13.90;57.30;;;;;;6276187;22;19949;-88
2022/03/28 07:27:36;;;;;;;;;;;14.00;57.30;;;;;;6281599;22;19908;-88
2022/03/28 07:30:03;;;;;;;;;;;14.20;57.40;;;;;;6275031;22;19915;-89
2022/03/28 07:32:30;;;;;;;;;;;14.30;57.30;;;;;;6250358;22;20324;-89
2022/03/28 07:34:55;;;;;;;;;;;14.40;57.00;;;;;;6276052;22;19912;-89
2022/03/28 07:37:22;;;;;;;;;;;14.50;56.90;;;;;;6276603;22;20332;-90
2022/03/28 07:39:48;;;;;;;;;;;14.50;56.60;;;;;;6276081;22;20264;-89
2022/03/28 07:42:13;;;;;;;;;;;14.60;56.20;;;;;;6278258;22;19907;-88
2022/03/28 07:44:39;;;;;;;;;;;14.70;55.70;;;;;;6276307;22;19907;-88
2022/03/28 07:47:08;;;;;;;;;;;14.70;56.20;;;;;;6275604;22;19930;-89
2022/03/28 07:49:35;;;;;;;;;;;14.80;56.20;;;;;;6276268;22;19908;-89
2022/03/28 07:52:01;;;;;;;;;;;15.00;56.50;;;;;;6276641;22;19908;-89
2022/03/28 07:54:27;;;;;;;;;;;15.10;56.60;;;;;;6250219;22;20298;-88
2022/03/28 07:56:52;;;;;;;;;;;15.30;56.30;;;;;;6274481;22;19965;-89
2022/03/28 07:59:18;;;;;;;;;;;15.40;56.20;;;;;;6275104;22;19911;-91
2022/03/28 08:01:44;;;;;;;;;;;15.50;56.10;;;;;;6275351;22;19914;-88
2022/03/28 08:04:09;;;;;;;;;;;15.60;55.60;;;;;;6275233;22;19915;-90
2022/03/28 08:06:34;;;;;;;;;;;15.70;55.20;;;;;;6275613;22;20586;-90
2022/03/28 08:09:00;;;;;;;;;;;15.70;54.60;;;;;;6276047;22;19908;-88
2022/03/28 08:11:25;;;;;;;;;;;15.70;54.30;;;;;;6275565;22;20028;-88
2022/03/28 08:13:51;;;;;;;;;;;15.70;55.10;;;;;;6275889;22;20002;-89
2022/03/28 08:16:16;;;;;;;;;;;15.80;55.40;;;;;;6274583;22;19919;-90
2022/03/28 08:18:42;;;;;;;;;;;16.00;55.50;;;;;;6274697;22;19918;-90
2022/03/28 08:21:08;;;;;;;;;;;16.10;55.00;;;;;;6275352;22;19912;-88
2022/03/28 08:23:35;;;;;;;;;;;16.10;54.30;;;;;;6274753;22;19908;-89
2022/03/28 08:26:01;;;;;;;;;;;16.20;54.50;;;;;;6276647;22;19986;-89
2022/03/28 08:28:26;;;;;;;;;;;16.30;54.60;;;;;;6276698;22;20223;-89
2022/03/28 08:30:52;;;;;;;;;;;16.40;54.30;;;;;;6274857;22;20232;-90
2022/03/28 08:33:18;;;;;;;;;;;16.50;54.00;;;;;;6276297;22;20014;-88
2022/03/28 08:35:43;;;;;;;;;;;16.60;54.60;;;;;;6276877;22;20290;-89
2022/03/28 08:38:09;;;;;;;;;;;16.70;54.90;;;;;;6279073;22;20573;-89
2022/03/28 08:40:34;;;;;;;;;;;16.90;55.10;;;;;;6276156;22;19907;-89
2022/03/28 08:43:03;;;;;;;;;;;17.10;55.00;;;;;;6276915;22;19953;-90
2022/03/28 08:45:28;;;;;;;;;;;17.30;54.60;;;;;;6276465;22;19990;-89
2022/03/28 08:47:55;;;;;;;;;;;17.50;54.90;;;;;;6276561;22;19941;-89
2022/03/28 08:50:26;;;;;;;;;;;17.70;54.90;;;;;;6276759;22;19943;-89
2022/03/28 08:52:51;;;;;;;;;;;18.00;54.80;;;;;;6276894;22;19943;-90
2022/03/28 08:55:18;;;;;;;;;;;18.20;54.50;;;;;;6277776;22;19918;-90
2022/03/28 08:57:44;;;;;;;;;;;18.30;54.90;;;;;;6277448;22;19927;-90
2022/03/28 09:00:10;;;;;;;;;;;18.60;54.90;;;;;;6277740;22;19915;-89
2022/03/28 09:02:44;;;;;;;;;;;18.90;54.90;;;;;;6276782;22;19933;-89
2022/03/28 09:05:47;;;;;;;;;;;19.10;54.70;;;;;;6276651;22;19908;-89
2022/03/28 09:08:12;;;;;;;;;;;19.30;53.50;;;;;;6241174;22;19918;-89
2022/03/28 09:10:45;;;;;;;;;;;19.50;53.70;;;;;;6276999;22;19911;-90
2022/03/28 09:13:12;;;;;;;;;;;19.70;54.00;;;;;;6276892;22;20343;-90
2022/03/28 09:15:52;;;;;;;;;;;19.90;53.60;;;;;;6276683;22;19954;-88
2022/03/28 09:18:25;;;;;;;;;;;20.10;52.60;;;;;;6277245;22;20276;-90
2022/03/28 09:20:52;;;;;;;;;;;20.30;53.10;;;;;;6278623;22;20379;-89
2022/03/28 09:23:30;;;;;;;;;;;20.60;53.00;;;;;;6280562;22;19908;-89
2022/03/28 09:25:56;;;;;;;;;;;20.80;52.20;;;;;;6276913;22;19986;-90
2022/03/28 09:28:45;;;;;;;;;;;21.10;52.60;;;;;;6278111;22;19907;-89
2022/03/28 09:31:15;;;;;;;;;;;21.40;53.50;;;;;;6276262;22;19994;-89
2022/03/28 09:34:01;;;;;;;;;;;22.00;54.00;;;;;;6277528;22;19911;-89
2022/03/28 09:36:53;;;;;;;;;;;22.50;53.20;;;;;;6277399;22;19920;-90
2022/03/28 09:39:25;;;;;;;;;;;23.00;52.00;;;;;;6275220;22;20296;-90
2022/03/28 09:41:58;;;;;;;;;;;23.30;52.40;;;;;;6276572;22;19915;-90
2022/03/28 09:44:37;;;;;;;;;;;23.80;51.40;;;;;;6277014;22;20024;-89
2022/03/28 09:47:11;;;;;;;;;;;24.30;51.90;;;;;;6276082;22;19915;-90
2022/03/28 09:49:38;;;;;;;;;;;24.70;48.00;;;;;;6277129;22;19935;-89
2022/03/28 09:52:06;;;;;;;;;;;25.00;47.30;;;;;;6277954;22;19965;-90
2022/03/28 09:54:43;;;;;;;;;;;25.40;46.80;;;;;;6276355;22;19915;-90
2022/03/28 09:57:09;;;;;;;;;;;25.80;43.80;;;;;;6277634;22;19923;-90
2022/03/28 09:59:39;;;;;;;;;;;26.20;42.50;;;;;;6277755;22;19934;-91
2022/03/28 10:02:15;;;;;;;;;;;26.40;41.00;;;;;;6276387;22;20344;-90
2022/03/28 10:04:44;;;;;;;;;;;26.70;39.90;;;;;;6276771;22;19996;-90
2022/03/28 10:07:09;;;;;;;;;;;26.90;38.60;;;;;;6278379;22;19934;-90
2022/03/28 10:09:36;;;;;;;;;;;27.20;38.10;;;;;;6276420;22;19911;-90
2022/03/28 10:12:02;;;;;;;;;;;27.40;37.80;;;;;;6276803;22;19915;-90
2022/03/28 10:14:29;;;;;;;;;;;27.60;36.50;;;;;;6277627;22;19961;-90
2022/03/28 10:16:55;;;;;;;;;;;27.80;36.40;;;;;;6276980;22;20331;-89
2022/03/28 10:19:23;;;;;;;;;;;28.10;35.90;;;;;;6276908;22;19903;-89
2022/03/28 10:21:48;;;;;;;;;;;28.40;34.60;;;;;;6275888;22;19922;-90
2022/03/28 10:24:16;;;;;;;;;;;28.70;35.40;;;;;;6276496;22;19907;-89
2022/03/28 10:26:44;;;;;;;;;;;29.00;35.00;;;;;;6275920;22;19919;-89
2022/03/28 10:29:17;;;;;;;;;;;29.30;34.90;;;;;;6277387;22;19911;-91
2022/03/28 10:31:52;;;;;;;;;;;29.60;33.90;;;;;;6279045;22;19933;-91
2022/03/28 10:34:37;;;;;;;;;;;29.80;33.00;;;;;;6279912;22;19915;-90
2022/03/28 10:37:21;;;;;;;;;;;30.10;31.60;;;;;;6279748;22;19923;-90
2022/03/28 10:39:47;;;;;;;;;;;30.20;30.60;;;;;;6252971;22;19907;-90
2022/03/28 10:42:16;;;;;;;;;;;30.30;31.00;;;;;;6279093;22;19911;-89
2022/03/28 10:44:46;;;;;;;;;;;30.60;30.90;;;;;;6280507;22;19968;-89
2022/03/28 10:47:14;;;;;;;;;;;30.80;30.30;;;;;;6279181;22;19917;-89
2022/03/28 10:49:48;;;;;;;;;;;30.90;28.80;;;;;;6281621;22;19929;-88
2022/03/28 10:52:16;;;;;;;;;;;30.90;28.60;;;;;;6279314;22;19999;-88
2022/03/28 10:54:42;;;;;;;;;;;31.00;28.40;;;;;;6280260;22;19911;-89
2022/03/28 10:57:24;;;;;;;;;;;31.10;27.00;;;;;;6280112;22;19955;-90
2022/03/28 11:00:00;;;;;;;;;;;31.10;27.50;;;;;;6279926;22;20241;-90
2022/03/28 11:02:29;;;;;;;;;;;31.30;27.40;;;;;;6278928;22;20227;-91
2022/03/28 11:05:04;;;;;;;;;;;31.40;26.60;;;;;;6278315;22;20399;-91
2022/03/28 11:07:30;;;;;;;;;;;31.50;27.40;;;;;;6278702;22;20094;-88
2022/03/28 11:10:04;;;;;;;;;;;31.80;26.00;;;;;;6278346;22;19911;-89
2022/03/28 11:12:40;;;;;;;;;;;31.70;25.60;;;;;;6278943;22;19907;-90
2022/03/28 11:15:08;;;;;;;;;;;31.70;25.30;;;;;;6278850;22;19961;-89
2022/03/28 11:17:37;;;;;;;;;;;31.50;25.10;;;;;;6279341;22;19911;-90
2022/03/28 11:20:05;;;;;;;;;;;31.50;25.50;;;;;;6281313;22;20327;-90
2022/03/28 11:22:39;;;;;;;;;;;31.50;24.90;;;;;;6279303;22;19911;-89
2022/03/28 11:25:05;;;;;;;;;;;31.50;24.60;;;;;;6278918;22;20735;-91
2022/03/28 11:27:32;;;;;;;;;;;31.50;25.00;;;;;;6304645;22;20758;-90
2022/03/28 11:30:03;;;;;;;;;;;31.50;25.00;;;;;;6280504;22;19978;-90
2022/03/28 11:32:31;;;;;;;;;;;31.50;24.70;;;;;;6279695;22;19996;-88
2022/03/28 11:34:57;;;;;;;;;;;31.50;24.40;;;;;;6279910;22;20323;-90
2022/03/28 11:37:23;;;;;;;;;;;31.40;24.30;;;;;;6278278;22;19916;-88
2022/03/28 11:40:05;;;;;;;;;;;31.50;25.10;;;;;;6280073;22;19982;-90
2022/03/28 11:42:37;;;;;;;;;;;31.80;25.10;;;;;;6280947;22;19915;-89
2022/03/28 11:45:13;;;;;;;;;;;31.90;24.50;;;;;;6280376;22;19962;-90
2022/03/28 11:47:41;;;;;;;;;;;31.90;24.10;;;;;;6280114;22;19918;-88
2022/03/28 11:50:08;;;;;;;;;;;31.90;23.70;;;;;;6280680;22;19907;-90
2022/03/28 11:52:34;;;;;;;;;;;31.80;23.80;;;;;;6280292;22;19973;-89
2022/03/28 11:55:16;;;;;;;;;;;31.80;23.80;;;;;;6282170;22;19911;-90
2022/03/28 12:00:31;;;;;;;;;;;31.90;23.90;;;;;;6281890;22;19969;-89
2022/03/28 12:02:58;;;;;;;;;;;31.90;24.10;;;;;;6279118;22;19908;-90
2022/03/28 12:05:27;;;;;;;;;;;32.10;23.70;;;;;;6279395;22;19943;-88
2022/03/28 12:07:57;;;;;;;;;;;32.00;23.00;;;;;;6280119;22;20293;-90
2022/03/28 12:10:29;;;;;;;;;;;31.90;23.20;;;;;;6278437;22;20029;-91
2022/03/28 12:12:56;;;;;;;;;;;31.80;22.70;;;;;;6278529;22;19911;-91
2022/03/28 12:15:29;;;;;;;;;;;31.70;22.70;;;;;;6278639;22;19942;-89
2022/03/28 12:17:58;;;;;;;;;;;31.50;22.90;;;;;;6278800;22;20235;-89
2022/03/28 12:20:25;;;;;;;;;;;31.50;23.00;;;;;;6278800;22;19903;-90
2022/03/28 12:22:51;;;;;;;;;;;31.50;22.90;;;;;;6278860;22;19911;-89
2022/03/28 12:25:28;;;;;;;;;;;31.40;23.00;;;;;;6277604;22;19910;-90
2022/03/28 12:27:54;;;;;;;;;;;31.30;22.80;;;;;;6278381;22;20392;-89
2022/03/28 12:30:24;;;;;;;;;;;31.20;22.90;;;;;;6280259;22;19907;-90
2022/03/28 12:32:50;;;;;;;;;;;31.10;22.70;;;;;;6278413;22;20290;-89
2022/03/28 12:35:18;;;;;;;;;;;31.10;23.10;;;;;;6278001;22;19916;-90
2022/03/28 12:37:44;;;;;;;;;;;31.00;23.20;;;;;;6279940;22;19946;-90
2022/03/28 12:40:10;;;;;;;;;;;30.80;23.10;;;;;;6279515;22;19915;-89
2022/03/28 12:42:35;;;;;;;;;;;30.80;23.40;;;;;;6278269;22;19911;-91
2022/03/28 12:45:01;;;;;;;;;;;30.80;23.40;;;;;;6278915;22;19911;-91
2022/03/28 12:47:27;;;;;;;;;;;30.50;23.20;;;;;;6279957;22;19911;-90
2022/03/28 12:49:53;;;;;;;;;;;30.20;23.40;;;;;;6282644;22;20316;-91
2022/03/28 12:52:24;;;;;;;;;;;30.00;23.70;;;;;;6278039;22;19911;-90
2022/03/28 12:54:56;;;;;;;;;;;29.80;23.90;;;;;;6281404;22;19912;-90
2022/03/28 12:57:30;;;;;;;;;;;29.70;24.20;;;;;;6279039;22;20235;-91
2022/03/28 12:59:56;;;;;;;;;;;29.50;24.20;;;;;;6279553;22;20231;-91
2022/03/28 13:02:29;;;;;;;;;;;29.30;24.40;;;;;;6277551;22;19943;-90
2022/03/28 13:04:58;;;;;;;;;;;29.30;24.80;;;;;;6280390;22;19990;-90
2022/03/28 13:07:29;;;;;;;;;;;29.30;24.60;;;;;;6279741;22;19907;-92
2022/03/28 13:09:59;;;;;;;;;;;29.10;24.60;;;;;;6279999;22;19907;-91
2022/03/28 13:12:41;;;;;;;;;;;28.90;24.60;;;;;;6279217;22;19908;-90
2022/03/28 13:15:07;;;;;;;;;;;28.70;25.00;;;;;;6277648;22;20286;-91
2022/03/28 13:17:32;;;;;;;;;;;28.40;25.00;;;;;;6251437;22;19911;-90
2022/03/28 13:20:03;;;;;;;;;;;28.30;25.50;;;;;;6277513;22;19917;-91
2022/03/28 13:22:30;;;;;;;;;;;28.30;25.70;;;;;;6278196;22;20355;-91
2022/03/28 13:25:05;;;;;;;;;;;28.30;25.30;;;;;;6279440;22;19907;-91
2022/03/28 13:30:17;;;;;;;;;;;27.80;25.90;;;;;;6283483;22;19959;-91
2022/03/28 13:32:43;;;;;;;;;;;27.40;26.40;;;;;;6280504;22;20217;-91
2022/03/28 13:35:08;;;;;;;;;;;27.00;26.80;;;;;;6280153;22;19911;-90
2022/03/28 13:37:34;;;;;;;;;;;26.50;27.60;;;;;;6279976;22;19915;-90
2022/03/28 13:39:59;;;;;;;;;;;26.00;28.20;;;;;;6279640;22;19910;-90
2022/03/28 13:42:26;;;;;;;;;;;25.40;28.80;;;;;;6279125;22;19921;-91
2022/03/28 13:44:53;;;;;;;;;;;25.00;29.30;;;;;;6278854;22;19935;-91
2022/03/28 13:47:18;;;;;;;;;;;24.40;30.10;;;;;;6277778;22;19961;-91
2022/03/28 13:49:44;;;;;;;;;;;23.90;30.90;;;;;;6280190;22;20263;-90
2022/03/28 13:52:10;;;;;;;;;;;23.50;31.60;;;;;;6280211;22;19938;-90
2022/03/28 13:54:36;;;;;;;;;;;23.20;32.20;;;;;;6279510;22;19986;-91
2022/03/28 13:57:03;;;;;;;;;;;22.90;32.70;;;;;;6278918;22;20263;-90
2022/03/28 13:59:29;;;;;;;;;;;22.60;33.30;;;;;;6278842;22;20593;-90
2022/03/28 14:01:55;;;;;;;;;;;22.30;33.80;;;;;;6277914;22;19914;-89
2022/03/28 14:04:23;;;;;;;;;;;22.10;34.00;;;;;;6277838;22;20006;-90
2022/03/28 14:06:49;;;;;;;;;;;21.90;34.40;;;;;;6278186;22;19918;-89
2022/03/28 14:09:18;;;;;;;;;;;21.80;34.70;;;;;;6279384;22;19978;-89
2022/03/28 14:11:44;;;;;;;;;;;21.60;35.20;;;;;;6277895;22;19911;-89
2022/03/28 14:14:10;;;;;;;;;;;21.50;35.50;;;;;;6278734;22;20235;-89
2022/03/28 14:16:35;;;;;;;;;;;21.40;36.00;;;;;;6277277;22;19919;-90
2022/03/28 14:19:01;;;;;;;;;;;21.30;36.40;;;;;;6277930;22;19903;-90
2022/03/28 14:21:27;;;;;;;;;;;21.20;36.50;;;;;;6277111;22;19911;-89
2022/03/28 14:23:52;;;;;;;;;;;21.00;36.90;;;;;;6277444;22;19917;-89
2022/03/28 14:26:20;;;;;;;;;;;20.90;37.00;;;;;;6278894;22;19960;-88
2022/03/28 14:28:45;;;;;;;;;;;20.80;37.50;;;;;;6278997;22;19986;-90
2022/03/28 14:31:11;;;;;;;;;;;20.70;37.90;;;;;;6276426;22;19993;-90